METAR AND TAF INFORMATION
METAR FOR SBES
ADDS - METARS form results

(0931 UTC 19 January 2019)
Data provider http://aviationweather.gov/metar/data/
 
METAR text: SBES 190900Z 05009KT 9999 FEW005 SCT007 23/22 Q1011
Conditions at: SBES (SAO PEDRO DA ALD, BR) observed 0900 UTC 19 January 2019
Temperature: 23.0°C (73°F)
Dewpoint: 22.0°C (72°F) [RH = 94%]
Pressure (altimeter): 29.85 inches Hg (1011.0 mb)
Winds: from the NE (50 degrees) at 10 MPH (9 knots; 4.6 m/s)
Visibility: 6 or more miles (10+ km)
Ceiling: at least 12,000 feet AGL
Clouds: few clouds at 500 feet AGL
scattered clouds at 700 feet AGL
Weather: no significant weather observed at this time

 AIRPORT MAP

 RUNWAY INFORMATION
Runway 7 Runway length 5906 ft Runway width 92 ft
Runway elevation 0 ft Runway displaced threshold 0 ft Runway heading 0
Runway 25 Runway length 5906 ft Runway width 92 ft
Runway elevation 0 ft Runway displaced threshold 0 ft Runway heading 0

 AIRPORT FREQUENCIES
Type APP Name ALDEIA APP Frequency 119.45 MHZ
Type GND Name GND Frequency 121.9 MHZ
Type TWR Name ALDEIA TWR Frequency 118.3 MHZ

 AIRPORT NEAR NAVIGATION AIDS
Type VOR-DME Name Aldeia Frequency 112100 KHZ
Type NDB Name Aldeia Frequency 345 KHZ



Powered by Virtual Airlines Manager [v2.6.2]